Time;durP1;ratioP1;P1;durP2;ratioP2;P2;SDS_P1;SDS_P2;PMS_P1;PMS_P2;Temp;Humidity;BMP_temperature;BMP_pressure;BME280_temperature;BME280_humidity;BME280_pressure;Samples;Min_cycle;Max_cycle;Signal;HPM_P1;HPM_P2
2022/04/21 00:00:33;;;;;;;121.82;60.03;;;2.50;99.90;;;;;;5097284;28;20026;-60
2022/04/21 00:02:59;;;;;;;134.25;65.40;;;2.60;99.90;;;;;;5079073;28;20024;-59
2022/04/21 00:05:25;;;;;;;144.60;70.28;;;2.60;99.90;;;;;;5076415;28;20040;-59
2022/04/21 00:07:52;;;;;;;128.13;65.55;;;2.60;99.90;;;;;;5076880;28;20086;-59
2022/04/21 00:10:20;;;;;;;132.55;65.45;;;2.60;99.90;;;;;;5092701;28;20032;-59
2022/04/21 00:12:46;;;;;;;140.95;69.03;;;2.70;99.90;;;;;;5096819;28;20484;-59
2022/04/21 00:15:12;;;;;;;152.65;75.03;;;2.70;99.90;;;;;;5097039;28;20489;-60
2022/04/21 00:17:39;;;;;;;164.05;81.50;;;2.70;99.90;;;;;;5097043;28;20019;-59
2022/04/21 00:20:06;;;;;;;148.05;72.45;;;2.70;99.90;;;;;;5096592;28;20071;-60
2022/04/21 00:25:17;;;;;;;139.43;68.53;;;2.70;99.90;;;;;;5095780;28;20028;-59
2022/04/21 00:27:44;;;;;;;131.32;66.80;;;2.60;99.90;;;;;;5096834;28;20103;-60
2022/04/21 00:30:13;;;;;;;139.73;69.07;;;2.70;99.90;;;;;;5097012;28;20020;-59
2022/04/21 00:32:40;;;;;;;135.93;67.00;;;2.70;99.90;;;;;;5096800;28;20032;-59
2022/04/21 00:35:09;;;;;;;131.25;64.65;;;2.70;99.90;;;;;;5096449;28;20028;-59
2022/04/21 00:37:48;;;;;;;134.38;65.43;;;2.70;99.90;;;;;;5096825;28;20032;-59
2022/04/21 00:40:16;;;;;;;128.07;63.13;;;2.70;99.90;;;;;;5096324;28;20021;-59
2022/04/21 00:42:42;;;;;;;122.20;62.53;;;2.70;99.90;;;;;;5096509;28;20017;-59
2022/04/21 00:45:09;;;;;;;118.85;59.95;;;2.80;99.90;;;;;;5096097;28;20028;-59
2022/04/21 00:47:40;;;;;;;122.07;61.70;;;2.80;99.90;;;;;;5096462;28;20035;-60
2022/04/21 00:50:09;;;;;;;117.80;59.20;;;2.70;99.90;;;;;;5096641;28;20477;-59
2022/04/21 00:52:35;;;;;;;110.47;56.78;;;2.70;99.90;;;;;;5096274;28;20035;-59
2022/04/21 00:55:01;;;;;;;103.68;54.33;;;2.70;99.90;;;;;;5096229;28;20099;-59
2022/04/21 00:57:28;;;;;;;99.57;52.70;;;2.70;99.90;;;;;;5096155;28;20172;-59
2022/04/21 00:59:54;;;;;;;89.70;48.80;;;2.60;99.90;;;;;;5096038;28;20424;-60
2022/04/21 01:05:04;;;;;;;95.30;52.80;;;2.80;99.90;;;;;;5075774;28;20390;-59
2022/04/21 01:07:32;;;;;;;93.53;50.38;;;2.80;99.90;;;;;;5075820;28;20032;-60
2022/04/21 01:09:58;;;;;;;84.97;48.60;;;2.60;99.90;;;;;;5089064;28;20390;-60
2022/04/21 01:12:25;;;;;;;91.85;48.58;;;2.50;99.90;;;;;;5095810;28;20107;-60
2022/04/21 01:14:51;;;;;;;85.22;47.05;;;2.40;99.90;;;;;;5095907;28;20035;-60
2022/04/21 01:17:30;;;;;;;87.55;48.33;;;2.30;99.90;;;;;;5095656;28;20020;-60
2022/04/21 01:19:56;;;;;;;85.85;47.50;;;2.30;99.90;;;;;;5095824;28;20048;-59
2022/04/21 01:22:22;;;;;;;85.00;49.08;;;2.30;99.90;;;;;;5095374;28;20601;-60
2022/04/21 01:24:48;;;;;;;92.30;52.63;;;2.20;99.90;;;;;;5095692;28;20085;-59
2022/04/21 01:27:14;;;;;;;96.57;52.33;;;2.10;99.90;;;;;;5095415;28;20036;-60
2022/04/21 01:29:40;;;;;;;92.32;51.08;;;2.10;99.90;;;;;;5095704;28;20078;-59
2022/04/21 01:32:06;;;;;;;94.93;49.28;;;2.00;99.90;;;;;;5095319;28;20458;-60
2022/04/21 01:34:33;;;;;;;96.55;52.00;;;2.00;99.90;;;;;;5095677;28;20021;-60
2022/04/21 01:42:28;;;;;;;82.60;46.80;;;2.10;99.90;;;;;;5095290;28;20028;-59
2022/04/21 01:44:55;;;;;;;90.82;49.33;;;2.10;99.90;;;;;;5095090;28;20448;-59
2022/04/21 01:47:21;;;;;;;84.95;48.30;;;2.10;99.90;;;;;;5095133;28;20121;-59
2022/04/21 01:49:46;;;;;;;89.90;47.65;;;2.10;99.90;;;;;;5095264;28;20028;-59
2022/04/21 01:52:12;;;;;;;86.18;48.15;;;2.00;99.90;;;;;;5095076;28;20065;-59
2022/04/21 01:54:39;;;;;;;85.38;47.92;;;2.00;99.90;;;;;;5095454;28;20036;-60
2022/04/21 01:57:04;;;;;;;87.68;48.67;;;2.00;99.90;;;;;;5094823;28;20051;-59
2022/04/21 01:59:30;;;;;;;83.40;49.30;;;2.00;99.90;;;;;;5095140;28;20028;-59
2022/04/21 02:01:56;;;;;;;89.55;50.55;;;2.00;99.90;;;;;;5085639;28;20025;-59
2022/04/21 02:04:22;;;;;;;85.53;46.95;;;1.90;99.90;;;;;;5074282;28;20032;-59
2022/04/21 02:06:48;;;;;;;87.60;48.80;;;1.90;99.90;;;;;;5074713;28;20077;-59
2022/04/21 02:09:14;;;;;;;86.63;50.38;;;1.90;99.90;;;;;;5081657;28;20103;-60
2022/04/21 02:11:41;;;;;;;87.40;47.17;;;1.90;99.90;;;;;;5094679;28;20071;-59
2022/04/21 02:14:06;;;;;;;84.03;47.90;;;1.90;99.90;;;;;;5094513;28;20499;-60
2022/04/21 02:16:32;;;;;;;84.43;48.45;;;1.90;99.90;;;;;;5094991;28;20024;-60
2022/04/21 02:19:02;;;;;;;83.32;48.28;;;1.90;99.90;;;;;;5094898;28;20509;-60
2022/04/21 02:21:28;;;;;;;84.95;49.70;;;1.90;99.90;;;;;;5094708;28;20040;-59
2022/04/21 02:23:54;;;;;;;102.75;56.25;;;1.90;99.90;;;;;;5094495;28;20043;-60
2022/04/21 02:26:19;;;;;;;102.93;54.35;;;1.90;99.90;;;;;;5094258;28;20032;-59
2022/04/21 02:28:45;;;;;;;103.35;54.47;;;1.80;99.90;;;;;;5094633;28;20028;-60
2022/04/21 02:31:11;;;;;;;99.22;53.80;;;1.80;99.90;;;;;;5094288;28;20177;-60
2022/04/21 02:33:37;;;;;;;100.32;51.35;;;1.70;99.90;;;;;;5094440;28;20051;-60
2022/04/21 02:36:03;;;;;;;99.57;54.15;;;1.80;99.90;;;;;;5094284;28;20481;-59
2022/04/21 02:38:29;;;;;;;101.38;56.53;;;1.70;99.90;;;;;;5094449;28;20051;-59
2022/04/21 02:40:55;;;;;;;108.32;57.53;;;1.70;99.90;;;;;;5094289;28;20024;-60
2022/04/21 02:43:21;;;;;;;103.20;56.90;;;1.70;99.90;;;;;;5094018;28;20040;-60
2022/04/21 02:45:47;;;;;;;101.22;55.80;;;1.70;99.90;;;;;;5094198;28;20020;-60
2022/04/21 02:48:14;;;;;;;95.47;51.90;;;1.80;99.90;;;;;;5093879;28;20020;-59
2022/04/21 02:50:41;;;;;;;87.32;48.45;;;1.80;99.90;;;;;;5094298;28;20035;-59
2022/04/21 02:53:07;;;;;;;85.47;48.80;;;1.80;99.90;;;;;;5093946;28;20020;-59
2022/04/21 02:58:20;;;;;;;104.32;52.78;;;1.60;99.90;;;;;;5093920;28;20024;-60
2022/04/21 03:00:47;;;;;;;98.05;53.58;;;1.60;99.90;;;;;;5094107;28;20028;-59
2022/04/21 03:03:13;;;;;;;89.28;51.22;;;1.60;99.90;;;;;;5073921;28;20024;-60
2022/04/21 03:05:39;;;;;;;101.13;55.28;;;1.70;99.90;;;;;;5073739;28;20091;-60
2022/04/21 03:08:05;;;;;;;103.20;55.17;;;1.70;99.90;;;;;;5073389;28;20036;-60
2022/04/21 03:10:32;;;;;;;111.13;58.25;;;1.80;99.90;;;;;;5091623;28;20027;-60
2022/04/21 03:12:58;;;;;;;99.53;52.85;;;1.80;99.90;;;;;;5094131;28;20533;-60
2022/04/21 03:15:25;;;;;;;98.20;53.42;;;1.80;99.90;;;;;;5093602;28;20937;-60
2022/04/21 03:17:51;;;;;;;103.10;54.38;;;1.80;99.90;;;;;;5093912;28;20028;-59
2022/04/21 03:25:46;;;;;;;96.40;52.80;;;1.80;99.90;;;;;;5093891;28;20050;-60
2022/04/21 03:28:13;;;;;;;98.72;52.65;;;1.80;99.90;;;;;;5093836;28;20118;-60
2022/04/21 03:30:38;;;;;;;107.05;55.47;;;1.70;99.90;;;;;;5093633;28;20073;-60
2022/04/21 03:33:05;;;;;;;101.93;53.45;;;1.70;99.90;;;;;;5093783;28;20473;-60
2022/04/21 03:35:31;;;;;;;93.88;54.38;;;1.70;99.90;;;;;;5094292;28;20048;-60
2022/04/21 03:37:57;;;;;;;96.47;51.83;;;1.70;99.90;;;;;;5093968;28;20035;-60
2022/04/21 03:40:23;;;;;;;87.25;48.55;;;1.70;99.90;;;;;;5093552;28;20059;-60
2022/04/21 03:42:49;;;;;;;85.90;47.97;;;1.80;99.90;;;;;;5093878;28;20028;-60
2022/04/21 03:45:14;;;;;;;96.13;49.97;;;1.80;99.90;;;;;;5093225;28;20032;-60
2022/04/21 03:47:41;;;;;;;84.45;46.90;;;1.80;99.90;;;;;;5093668;28;20028;-60
2022/04/21 03:50:07;;;;;;;95.53;47.40;;;1.80;99.90;;;;;;5093574;28;20425;-60
2022/04/21 03:52:33;;;;;;;88.72;48.03;;;1.70;99.90;;;;;;5093397;28;20020;-60
2022/04/21 03:54:59;;;;;;;93.82;48.75;;;1.60;99.90;;;;;;5093666;28;20504;-60
2022/04/21 03:57:27;;;;;;;96.18;49.35;;;1.70;99.90;;;;;;5093537;28;20034;-60
2022/04/21 03:59:53;;;;;;;89.03;47.53;;;1.70;99.90;;;;;;5093462;28;20020;-60
2022/04/21 04:02:19;;;;;;;87.45;48.72;;;1.70;99.90;;;;;;5084756;28;20032;-60
2022/04/21 04:04:45;;;;;;;82.50;47.45;;;1.70;99.90;;;;;;5076787;28;20032;-60
2022/04/21 04:12:40;;;;;;;71.22;40.35;;;1.70;99.90;;;;;;5097159;28;20049;-60
2022/04/21 04:15:09;;;;;;;89.90;49.97;;;1.80;99.90;;;;;;5096770;28;20056;-60
2022/04/21 04:17:36;;;;;;;108.45;55.47;;;1.80;99.90;;;;;;5097071;28;20032;-60
2022/04/21 04:20:04;;;;;;;117.78;56.70;;;1.90;99.90;;;;;;5089192;28;20585;-60
2022/04/21 04:22:35;;;;;;;110.72;53.67;;;1.90;99.90;;;;;;5076528;28;20486;-60
2022/04/21 04:25:01;;;;;;;109.00;53.92;;;1.90;99.90;;;;;;5076545;28;20086;-60
2022/04/21 04:27:28;;;;;;;93.00;48.28;;;2.00;99.90;;;;;;5076445;28;20033;-60
2022/04/21 04:29:53;;;;;;;100.00;49.45;;;2.00;99.90;;;;;;5076445;28;20025;-60
2022/04/21 04:32:20;;;;;;;104.18;51.90;;;2.10;99.90;;;;;;5076305;28;20051;-60
2022/04/21 04:34:46;;;;;;;114.40;56.05;;;2.10;99.90;;;;;;5058518;28;20024;-60
2022/04/21 04:37:12;;;;;;;103.60;50.70;;;2.10;99.90;;;;;;5076243;28;20032;-60
2022/04/21 04:39:38;;;;;;;97.45;51.50;;;2.10;99.90;;;;;;5076363;28;20028;-60
2022/04/21 04:42:16;;;;;;;92.07;50.63;;;2.20;99.90;;;;;;5075847;28;20025;-60
2022/04/21 04:44:42;;;;;;;93.45;49.70;;;2.30;99.90;;;;;;5076051;28;20038;-60
2022/04/21 04:47:08;;;;;;;94.05;49.92;;;2.20;99.90;;;;;;5075925;28;20037;-60
2022/04/21 04:49:34;;;;;;;97.18;53.70;;;2.20;99.90;;;;;;5076043;28;20049;-60
2022/04/21 04:52:00;;;;;;;96.70;49.83;;;2.30;99.90;;;;;;5076056;28;20082;-60
2022/04/21 04:54:28;;;;;;;96.47;48.17;;;2.40;99.90;;;;;;5075932;28;20058;-60
2022/04/21 04:56:55;;;;;;;87.78;49.40;;;2.50;99.90;;;;;;5076088;28;20020;-60
2022/04/21 04:59:21;;;;;;;94.75;49.40;;;2.50;99.90;;;;;;5075815;28;20124;-60
2022/04/21 05:01:47;;;;;;;91.50;48.47;;;2.50;99.90;;;;;;5068039;28;20032;-61
2022/04/21 05:04:15;;;;;;;98.68;52.58;;;2.60;99.90;;;;;;5055441;28;20040;-60
2022/04/21 05:06:44;;;;;;;96.13;50.42;;;2.70;99.90;;;;;;5055528;28;20082;-60
2022/04/21 05:09:14;;;;;;;128.77;70.85;;;2.80;99.90;;;;;;5055394;28;20252;-60
2022/04/21 05:11:42;;;;;;;105.45;52.33;;;2.80;99.90;;;;;;5048507;28;20032;-60
2022/04/21 05:14:09;;;;;;;129.70;62.67;;;2.90;99.90;;;;;;5042778;28;20119;-60
2022/04/21 05:16:37;;;;;;;137.55;65.85;;;3.00;99.90;;;;;;5038997;28;20037;-60
2022/04/21 05:19:13;;;;;;;98.60;50.72;;;3.10;99.90;;;;;;5052801;28;20033;-60
2022/04/21 05:21:41;;;;;;;102.45;49.95;;;3.10;99.90;;;;;;5066924;28;20033;-60
2022/04/21 05:24:08;;;;;;;111.68;53.15;;;3.30;99.90;;;;;;5045856;28;20590;-60
2022/04/21 05:26:35;;;;;;;97.97;53.53;;;3.30;99.90;;;;;;5066937;28;20031;-60
2022/04/21 05:32:00;;;;;;;98.45;51.20;;;3.60;99.90;;;;;;5039490;28;20036;-60
2022/04/21 05:34:28;;;;;;;123.38;55.90;;;3.50;99.90;;;;;;5064648;28;20047;-60
2022/04/21 05:36:55;;;;;;;127.07;58.15;;;3.40;99.90;;;;;;5065422;28;20465;-60
2022/04/21 05:39:22;;;;;;;118.53;59.50;;;3.50;99.90;;;;;;5066756;28;20114;-59
2022/04/21 05:41:48;;;;;;;116.47;58.25;;;3.50;99.90;;;;;;5065512;28;20020;-59
2022/04/21 05:44:14;;;;;;;115.30;57.70;;;3.60;99.90;;;;;;5062228;28;20104;-59
2022/04/21 05:46:41;;;;;;;140.23;64.57;;;3.80;99.90;;;;;;5064895;28;20047;-60
2022/04/21 05:49:07;;;;;;;117.35;57.75;;;3.90;99.90;;;;;;5062078;28;20020;-60
2022/04/21 05:51:33;;;;;;;110.03;52.40;;;3.90;99.90;;;;;;5069776;28;20481;-60
2022/04/21 05:54:04;;;;;;;120.72;55.05;;;3.90;99.90;;;;;;5062447;28;20029;-60
2022/04/21 05:56:30;;;;;;;;;;;4.00;99.90;;;;;;5068826;28;20126;-60
2022/04/21 05:58:56;;;;;;;114.57;55.78;;;4.20;99.90;;;;;;5067350;28;20364;-59
2022/04/21 06:01:24;;;;;;;122.75;60.58;;;4.30;99.90;;;;;;5067425;28;20039;-59
2022/04/21 06:03:52;;;;;;;106.72;56.80;;;4.40;99.90;;;;;;5068648;28;20055;-60
2022/04/21 06:06:18;;;;;;;120.18;60.65;;;4.50;99.90;;;;;;5063120;28;20025;-60
2022/04/21 06:08:45;;;;;;;105.38;57.22;;;4.60;99.90;;;;;;5077075;28;20027;-60
2022/04/21 06:11:14;;;;;;;110.68;57.92;;;4.60;99.90;;;;;;5093338;28;20047;-60
2022/04/21 06:13:41;;;;;;;102.20;55.63;;;4.70;99.90;;;;;;5062283;28;20055;-60
2022/04/21 06:16:07;;;;;;;106.43;58.38;;;4.80;99.90;;;;;;5065206;28;20402;-60
2022/04/21 06:18:35;;;;;;;118.00;62.45;;;4.90;99.90;;;;;;5062430;28;20111;-60
2022/04/21 06:21:01;;;;;;;121.75;63.05;;;5.10;99.90;;;;;;5067541;28;20056;-60
2022/04/21 06:23:28;;;;;;;118.47;61.60;;;5.30;99.90;;;;;;5053763;28;20483;-60
2022/04/21 06:25:58;;;;;;;109.32;59.83;;;5.50;99.90;;;;;;5056742;28;20048;-60
2022/04/21 06:28:25;;;;;;;108.78;61.25;;;5.70;99.90;;;;;;5056611;28;20108;-60
2022/04/21 06:30:52;;;;;;;108.72;60.28;;;5.80;99.90;;;;;;5065026;28;20087;-60
2022/04/21 06:33:18;;;;;;;108.38;61.08;;;6.10;99.90;;;;;;5066793;28;20092;-60
2022/04/21 06:35:44;;;;;;;117.25;63.80;;;6.20;99.90;;;;;;5058556;28;20024;-60
2022/04/21 06:38:11;;;;;;;113.97;62.25;;;6.20;99.90;;;;;;5071799;28;20547;-60
2022/04/21 06:40:37;;;;;;;129.52;69.53;;;6.30;99.90;;;;;;5073417;28;20037;-60
2022/04/21 06:48:01;;;;;;;118.60;66.18;;;6.40;99.90;;;;;;5067799;28;20067;-60
2022/04/21 06:48:34;;;;;;;122.65;63.40;;;6.50;99.90;;;;;;5073253;28;20040;-60
2022/04/21 06:51:00;;;;;;;132.85;67.70;;;6.70;99.90;;;;;;5062015;28;20021;-60
2022/04/21 06:53:26;;;;;;;109.65;63.25;;;6.90;99.90;;;;;;5087388;28;20040;-60
2022/04/21 06:55:52;;;;;;;108.20;59.90;;;6.90;99.90;;;;;;5065259;28;20032;-60
2022/04/21 06:58:18;;;;;;;104.07;60.08;;;6.80;99.90;;;;;;5059628;28;20033;-60
2022/04/21 07:00:45;;;;;;;102.72;60.30;;;7.10;99.90;;;;;;5069204;28;20071;-60
2022/04/21 07:03:11;;;;;;;106.80;58.72;;;7.20;99.90;;;;;;5071864;28;20032;-60
2022/04/21 07:05:37;;;;;;;95.57;57.67;;;7.40;99.90;;;;;;5064439;28;20352;-60
2022/04/21 07:08:04;;;;;;;97.53;54.35;;;7.60;99.90;;;;;;5063558;28;20082;-61
2022/04/21 07:10:30;;;;;;;99.75;56.53;;;7.90;99.90;;;;;;5071072;28;20021;-60
2022/04/21 07:12:56;;;;;;;107.53;57.95;;;8.10;99.90;;;;;;5073891;28;20037;-61
2022/04/21 07:15:22;;;;;;;98.65;55.08;;;8.10;99.90;;;;;;5073652;28;20037;-61
2022/04/21 07:17:47;;;;;;;124.88;61.08;;;8.10;99.90;;;;;;5073967;28;20504;-60
2022/04/21 07:20:13;;;;;;;108.75;57.92;;;8.40;99.90;;;;;;5072905;28;20155;-60
2022/04/21 07:22:40;;;;;;;92.55;51.90;;;8.50;99.90;;;;;;5070698;28;20028;-60
2022/04/21 07:25:09;;;;;;;90.93;52.60;;;8.50;99.90;;;;;;5072943;28;20064;-60
2022/04/21 07:27:37;;;;;;;90.60;52.35;;;8.70;99.90;;;;;;5072179;28;20389;-60
2022/04/21 07:30:04;;;;;;;89.68;54.45;;;8.90;99.90;;;;;;5068388;28;20103;-61
2022/04/21 07:32:30;;;;;;;89.05;48.72;;;9.10;99.90;;;;;;5065605;28;20046;-61
2022/04/21 07:34:56;;;;;;;86.47;49.13;;;9.30;99.90;;;;;;5074058;28;20413;-61
2022/04/21 07:37:22;;;;;;;86.47;51.10;;;9.60;99.90;;;;;;5081149;28;20695;-60
2022/04/21 07:39:48;;;;;;;86.93;53.20;;;9.60;99.90;;;;;;5078119;28;20055;-60
2022/04/21 07:42:14;;;;;;;95.38;54.67;;;9.80;99.90;;;;;;5078501;28;20104;-60
2022/04/21 07:44:40;;;;;;;90.00;52.00;;;9.80;99.90;;;;;;5078047;28;20458;-60
2022/04/21 07:47:07;;;;;;;88.35;52.10;;;9.90;99.90;;;;;;5078187;28;20036;-61
2022/04/21 07:49:46;;;;;;;91.10;53.80;;;10.00;99.90;;;;;;5066964;28;20095;-61
2022/04/21 07:55:20;;;;;;;;;;;11.00;99.90;;;;;;5092141;28;20464;-61
2022/04/21 07:57:47;;;;;;;55.25;32.60;;;11.50;99.90;;;;;;5078089;28;19977;-61
2022/04/21 08:00:18;;;;;;;58.45;35.47;;;11.80;99.90;;;;;;5078096;28;20029;-61
2022/04/21 08:02:45;;;;;;;67.57;41.95;;;12.20;99.90;;;;;;5077829;28;20029;-61
2022/04/21 08:05:14;;;;;;;72.00;45.55;;;12.70;99.90;;;;;;5074083;28;20040;-61
2022/04/21 08:07:40;;;;;;;85.82;48.47;;;13.10;99.90;;;;;;5064720;28;20025;-61
2022/04/21 08:10:09;;;;;;;88.93;48.10;;;13.30;99.90;;;;;;5070456;28;20327;-62
2022/04/21 08:12:43;;;;;;;67.20;40.08;;;13.60;99.90;;;;;;5085087;28;20416;-61
2022/04/21 08:15:23;;;;;;;74.55;45.40;;;13.40;99.90;;;;;;5078435;28;20040;-61
2022/04/21 08:17:51;;;;;;;73.13;43.40;;;13.20;99.90;;;;;;5084013;28;20031;-62
2022/04/21 08:20:17;;;;;;;94.00;48.40;;;13.10;99.90;;;;;;5073727;28;20998;-61
2022/04/21 08:22:44;;;;;;;74.25;43.17;;;13.20;99.90;;;;;;5066841;28;20024;-61
2022/04/21 08:33:24;;;;;;;67.18;35.92;;;14.40;99.10;;;;;;5096258;28;20016;-62
2022/04/21 08:35:51;;;;;;;67.10;37.83;;;14.60;96.10;;;;;;5095713;28;20496;-62
2022/04/21 08:38:18;;;;;;;64.10;37.58;;;15.10;97.40;;;;;;5096393;28;20020;-62
2022/04/21 08:40:56;;;;;;;59.13;39.17;;;15.50;93.60;;;;;;5095993;28;20019;-62
2022/04/21 08:43:24;;;;;;;78.43;39.85;;;15.40;92.90;;;;;;5095947;28;20034;-61
2022/04/21 08:45:51;;;;;;;63.80;37.72;;;15.50;93.60;;;;;;5090553;28;20361;-61
2022/04/21 08:48:22;;;;;;;64.50;37.97;;;15.40;93.00;;;;;;5096097;28;20454;-61
2022/04/21 08:50:48;;;;;;;67.35;38.95;;;15.50;93.80;;;;;;5095808;28;20111;-61
2022/04/21 08:53:24;;;;;;;65.78;39.40;;;15.60;94.20;;;;;;5095643;28;20023;-61
2022/04/21 08:55:51;;;;;;;73.13;40.33;;;15.50;93.40;;;;;;5079825;28;20033;-61
2022/04/21 08:58:19;;;;;;;78.05;43.35;;;15.30;91.40;;;;;;5069514;28;20025;-61
2022/04/21 09:00:45;;;;;;;72.75;40.92;;;15.20;94.20;;;;;;5059348;28;20025;-61
2022/04/21 09:03:13;;;;;;;70.53;39.90;;;15.30;93.90;;;;;;5075060;28;20036;-61
2022/04/21 09:05:39;;;;;;;65.00;39.10;;;15.40;93.70;;;;;;5075709;28;20024;-61
2022/04/21 09:08:18;;;;;;;66.68;41.13;;;15.50;92.70;;;;;;5071395;28;20085;-61
2022/04/21 09:11:00;;;;;;;61.33;38.42;;;15.30;95.10;;;;;;5086585;28;20031;-61
2022/04/21 09:13:58;;;;;;;58.03;38.17;;;15.30;94.50;;;;;;5070575;28;20025;-61
2022/04/21 09:16:33;;;;;;;67.28;38.05;;;15.20;95.60;;;;;;5057847;28;20044;-61
2022/04/21 09:19:02;;;;;;;67.28;40.00;;;15.50;95.10;;;;;;5061966;28;20386;-61
2022/04/21 09:21:37;;;;;;;71.75;40.40;;;15.50;93.60;;;;;;5062441;28;20483;-61
2022/04/21 09:24:20;;;;;;;58.90;35.58;;;15.40;95.80;;;;;;5067482;28;20033;-61
2022/04/21 09:26:46;;;;;;;62.88;36.28;;;15.40;96.00;;;;;;5074183;28;20462;-61
2022/04/21 09:29:22;;;;;;;66.22;38.00;;;15.60;97.30;;;;;;5077155;28;20028;-62
2022/04/21 09:31:55;;;;;;;56.15;35.63;;;15.70;92.90;;;;;;5069899;28;20482;-61
2022/04/21 09:34:22;;;;;;;54.35;32.92;;;15.60;94.00;;;;;;5063128;28;20040;-61
2022/04/21 09:36:48;;;;;;;53.30;33.42;;;15.60;93.70;;;;;;5064987;28;20060;-61
2022/04/21 09:39:15;;;;;;;58.85;34.45;;;15.60;93.60;;;;;;5074298;28;20071;-61
2022/04/21 09:41:46;;;;;;;56.90;31.83;;;15.50;94.10;;;;;;5074953;28;20020;-61
2022/04/21 09:46:57;;;;;;;53.15;30.30;;;15.50;90.30;;;;;;5090366;28;20024;-61
2022/04/21 09:49:43;;;;;;;54.38;30.25;;;15.40;90.90;;;;;;5077794;28;20387;-61
2022/04/21 09:52:10;;;;;;;46.17;28.55;;;15.50;92.80;;;;;;5056178;28;20513;-61
2022/04/21 09:54:39;;;;;;;53.72;28.38;;;15.60;90.30;;;;;;5054904;28;20494;-61
2022/04/21 09:57:05;;;;;;;48.25;24.10;;;15.40;87.20;;;;;;5054614;28;20029;-61
2022/04/21 09:59:35;;;;;;;38.40;20.52;;;15.60;86.60;;;;;;5054153;28;20056;-61
2022/04/21 10:02:04;;;;;;;42.78;25.75;;;15.90;84.70;;;;;;5064018;28;20035;-61
2022/04/21 10:04:31;;;;;;;39.50;24.45;;;16.00;91.40;;;;;;5078517;28;20036;-61
2022/04/21 10:06:57;;;;;;;35.08;19.58;;;16.00;91.80;;;;;;5072533;28;20036;-62
2022/04/21 10:09:25;;;;;;;39.47;22.95;;;16.10;77.80;;;;;;5061445;28;20028;-61
2022/04/21 10:11:52;;;;;;;41.03;23.25;;;16.30;86.50;;;;;;5067044;28;20024;-61
2022/04/21 10:14:19;;;;;;;26.90;16.67;;;16.50;76.40;;;;;;5095126;28;20028;-61
2022/04/21 10:16:46;;;;;;;37.97;20.08;;;16.60;66.90;;;;;;5065754;28;20021;-61
2022/04/21 10:19:13;;;;;;;25.70;14.38;;;16.70;70.60;;;;;;5071153;28;20040;-61
2022/04/21 10:21:48;;;;;;;34.15;17.48;;;16.90;60.00;;;;;;5052832;28;20118;-61
2022/04/21 10:24:24;;;;;;;33.63;18.65;;;17.10;72.40;;;;;;5077841;28;20024;-61
2022/04/21 10:26:50;;;;;;;39.08;17.05;;;17.20;57.40;;;;;;5089076;28;20061;-61
2022/04/21 10:29:26;;;;;;;26.38;15.82;;;17.40;56.70;;;;;;5079223;28;20378;-61
2022/04/21 10:31:59;;;;;;;36.00;16.75;;;17.50;55.50;;;;;;5073271;28;20141;-60
2022/04/21 10:34:37;;;;;;;30.17;15.52;;;17.50;53.30;;;;;;5070572;28;20036;-61
2022/04/21 10:37:22;;;;;;;24.92;13.77;;;17.50;56.30;;;;;;5066078;28;20036;-61
2022/04/21 10:40:09;;;;;;;22.95;11.32;;;17.40;51.10;;;;;;5073227;28;20103;-61
2022/04/21 10:42:57;;;;;;;18.67;11.63;;;17.40;51.20;;;;;;5071901;28;20086;-60
2022/04/21 10:45:26;;;;;;;20.52;12.05;;;17.40;48.80;;;;;;5063135;28;20037;-61
2022/04/21 10:48:08;;;;;;;21.80;13.23;;;17.20;53.90;;;;;;5068445;28;20036;-60
2022/04/21 10:50:36;;;;;;;33.53;16.25;;;17.30;53.50;;;;;;5069349;28;20026;-61
2022/04/21 10:58:33;;;;;;;20.50;10.45;;;17.20;57.10;;;;;;5076077;28;20039;-61
2022/04/21 11:01:12;;;;;;;29.80;12.88;;;17.30;57.30;;;;;;5069202;28;20422;-61
2022/04/21 11:03:39;;;;;;;25.25;12.88;;;17.40;53.60;;;;;;5074474;28;20125;-61
2022/04/21 11:06:06;;;;;;;21.05;11.85;;;17.60;61.90;;;;;;5077259;28;20398;-62
2022/04/21 11:08:32;;;;;;;33.42;13.48;;;17.80;52.30;;;;;;5075245;28;20021;-61
2022/04/21 11:11:08;;;;;;;23.20;13.15;;;17.80;51.10;;;;;;5079920;28;20124;-61
2022/04/21 11:13:49;;;;;;;20.27;12.13;;;17.90;53.60;;;;;;5077775;28;20044;-61
2022/04/21 11:16:40;;;;;;;28.55;17.15;;;17.70;52.40;;;;;;5077358;28;20478;-61
2022/04/21 11:19:25;;;;;;;;;;;18.00;59.10;;;;;;5077383;28;20024;-61
2022/04/21 11:21:52;;;;;;;47.38;21.98;;;18.20;54.40;;;;;;5098152;28;19920;-62
2022/04/21 11:24:18;;;;;;;26.75;13.85;;;18.50;51.30;;;;;;5092208;28;20021;-61
2022/04/21 11:26:52;;;;;;;33.40;17.17;;;18.40;49.60;;;;;;5087873;28;20016;-61
2022/04/21 11:29:22;;;;;;;33.05;15.15;;;18.20;51.50;;;;;;5091213;28;20479;-61
2022/04/21 11:31:48;;;;;;;22.15;11.90;;;18.20;53.60;;;;;;5068055;28;20021;-61
2022/04/21 11:34:22;;;;;;;22.15;13.45;;;18.10;53.10;;;;;;5081765;28;20024;-61
2022/04/21 11:36:48;;;;;;;19.45;11.57;;;18.20;52.00;;;;;;5089674;28;20025;-61
2022/04/21 11:39:15;;;;;;;26.77;12.70;;;18.50;52.60;;;;;;5075677;28;20102;-62
2022/04/21 11:41:44;;;;;;;16.67;9.90;;;18.60;58.30;;;;;;5077320;28;20035;-61
2022/04/21 11:44:10;;;;;;;22.77;10.90;;;18.70;54.40;;;;;;5059664;28;20032;-61
2022/04/21 11:46:40;;;;;;;24.35;11.30;;;18.60;51.90;;;;;;5072871;28;20425;-62
2022/04/21 11:49:08;;;;;;;26.13;12.15;;;18.60;51.50;;;;;;5072853;28;20074;-61
2022/04/21 11:51:34;;;;;;;30.08;12.82;;;18.70;50.20;;;;;;5065272;28;20025;-61
2022/04/21 11:54:04;;;;;;;36.50;15.35;;;18.60;50.20;;;;;;5072201;28;20021;-61
2022/04/21 11:56:30;;;;;;;37.25;13.88;;;18.60;50.40;;;;;;5076571;28;20094;-61
2022/04/21 11:59:07;;;;;;;23.42;12.00;;;18.40;50.30;;;;;;5068104;28;20454;-62
2022/04/21 12:07:08;;;;;;;25.33;11.43;;;18.70;57.80;;;;;;5088617;28;20024;-62
2022/04/21 12:09:38;;;;;;;21.83;12.95;;;18.60;51.10;;;;;;5086785;28;20055;-62
2022/04/21 12:12:05;;;;;;;22.02;11.57;;;18.80;59.50;;;;;;5085272;28;20086;-61
2022/04/21 12:14:32;;;;;;;19.15;10.60;;;19.30;55.70;;;;;;5072493;28;20383;-62
2022/04/21 12:17:04;;;;;;;26.33;10.38;;;19.20;48.80;;;;;;5081100;28;20493;-62
2022/04/21 12:19:37;;;;;;;18.85;11.70;;;19.30;48.70;;;;;;5069260;28;20075;-62
2022/04/21 12:22:20;;;;;;;19.45;11.73;;;19.40;47.90;;;;;;5061764;28;20149;-62
2022/04/21 12:24:49;;;;;;;23.38;11.40;;;19.70;49.30;;;;;;5076222;28;20028;-62
2022/04/21 12:27:20;;;;;;;26.50;11.77;;;19.80;47.60;;;;;;5072837;28;20070;-62
2022/04/21 12:29:52;;;;;;;21.73;11.75;;;20.10;55.40;;;;;;5073678;28;20052;-62
2022/04/21 12:32:21;;;;;;;24.92;11.10;;;20.30;51.50;;;;;;5070035;28;20029;-62
2022/04/21 12:34:48;;;;;;;17.38;9.65;;;20.50;47.70;;;;;;5060737;28;20029;-62
2022/04/21 12:37:14;;;;;;;26.10;11.52;;;20.40;47.40;;;;;;5092042;28;20534;-62
2022/04/21 12:39:41;;;;;;;18.55;10.52;;;20.40;51.00;;;;;;5071082;28;20458;-62
2022/04/21 12:42:07;;;;;;;23.02;10.63;;;20.20;49.90;;;;;;5077204;28;20118;-62
2022/04/21 12:44:34;;;;;;;30.95;12.63;;;20.10;50.20;;;;;;5065822;28;20033;-62
2022/04/21 12:47:04;;;;;;;38.55;11.65;;;19.90;48.00;;;;;;5063569;28;20029;-62
2022/04/21 12:49:49;;;;;;;;;;;19.70;50.50;;;;;;5072666;28;20059;-61
2022/04/21 12:52:15;;;;;;;25.48;11.00;;;19.60;56.50;;;;;;5085408;28;19912;-62
2022/04/21 12:54:47;;;;;;;30.17;10.85;;;19.60;53.60;;;;;;5086813;28;20477;-62
2022/04/21 12:57:15;;;;;;;20.60;11.13;;;19.50;50.60;;;;;;5085703;28;20034;-62
2022/04/21 12:59:41;;;;;;;30.17;12.52;;;19.40;50.90;;;;;;5083970;28;20512;-61
2022/04/21 13:02:07;;;;;;;23.60;11.30;;;19.20;53.00;;;;;;5080862;28;20033;-62
2022/04/21 13:04:35;;;;;;;28.42;11.88;;;18.80;55.30;;;;;;5086042;28;20077;-61
2022/04/21 13:07:02;;;;;;;15.68;11.07;;;18.60;56.60;;;;;;5084178;28;20974;-61
2022/04/21 13:09:28;;;;;;;19.02;10.85;;;18.40;55.10;;;;;;5080958;28;20530;-61
2022/04/21 13:11:54;;;;;;;18.08;11.63;;;18.50;56.30;;;;;;5085880;28;20047;-61
2022/04/21 13:14:20;;;;;;;19.38;11.13;;;18.40;55.70;;;;;;5085822;28;20062;-61
2022/04/21 13:16:46;;;;;;;27.67;13.10;;;18.30;60.40;;;;;;5083880;28;20048;-61
2022/04/21 13:19:12;;;;;;;22.38;12.50;;;18.30;61.80;;;;;;5089514;28;20039;-61
2022/04/21 13:21:53;;;;;;;32.38;17.95;;;18.10;62.70;;;;;;5089307;28;20063;-61
2022/04/21 13:24:19;;;;;;;32.65;14.15;;;18.10;75.20;;;;;;5076463;28;20052;-61
2022/04/21 13:26:45;;;;;;;19.73;9.50;;;18.00;71.50;;;;;;5071724;28;20028;-61
2022/04/21 13:29:11;;;;;;;14.93;9.00;;;17.90;71.20;;;;;;5075532;28;20040;-61
2022/04/21 13:34:21;;;;;;;18.25;10.30;;;17.60;71.60;;;;;;5074545;28;20553;-61